sensor_id;sensor_type;location;lat;lon;timestamp;temperature;humidity
25871;DHT22;13689;48.590;7.752;2023-02-02T00:00:43;8.00;79.10
25871;DHT22;13689;48.590;7.752;2023-02-02T00:03:09;8.00;79.20
25871;DHT22;13689;48.590;7.752;2023-02-02T00:05:35;7.90;79.20
25871;DHT22;13689;48.590;7.752;2023-02-02T00:08:01;7.90;79.60
25871;DHT22;13689;48.590;7.752;2023-02-02T00:10:27;7.90;79.60
25871;DHT22;13689;48.590;7.752;2023-02-02T00:12:53;8.00;79.80
25871;DHT22;13689;48.590;7.752;2023-02-02T00:15:25;7.90;79.90
25871;DHT22;13689;48.590;7.752;2023-02-02T00:17:51;7.90;80.00
25871;DHT22;13689;48.590;7.752;2023-02-02T00:20:16;7.90;80.10
25871;DHT22;13689;48.590;7.752;2023-02-02T00:22:42;7.90;80.20
25871;DHT22;13689;48.590;7.752;2023-02-02T00:25:08;7.90;81.10
25871;DHT22;13689;48.590;7.752;2023-02-02T00:27:34;7.90;80.30
25871;DHT22;13689;48.590;7.752;2023-02-02T00:29:59;7.90;80.40
25871;DHT22;13689;48.590;7.752;2023-02-02T00:32:25;7.90;80.40
25871;DHT22;13689;48.590;7.752;2023-02-02T00:34:50;7.90;80.50
25871;DHT22;13689;48.590;7.752;2023-02-02T00:37:16;7.80;80.50
25871;DHT22;13689;48.590;7.752;2023-02-02T00:39:41;7.80;80.60
25871;DHT22;13689;48.590;7.752;2023-02-02T00:42:10;7.80;80.60
25871;DHT22;13689;48.590;7.752;2023-02-02T00:44:35;7.80;80.70
25871;DHT22;13689;48.590;7.752;2023-02-02T00:47:19;7.80;80.80
25871;DHT22;13689;48.590;7.752;2023-02-02T00:49:47;7.80;80.80
25871;DHT22;13689;48.590;7.752;2023-02-02T00:52:12;7.80;80.80
25871;DHT22;13689;48.590;7.752;2023-02-02T00:54:38;7.80;80.80
25871;DHT22;13689;48.590;7.752;2023-02-02T00:57:04;7.80;80.80
25871;DHT22;13689;48.590;7.752;2023-02-02T00:59:29;7.80;80.80
25871;DHT22;13689;48.590;7.752;2023-02-02T01:02:04;7.80;81.70
25871;DHT22;13689;48.590;7.752;2023-02-02T01:04:33;7.80;80.90
25871;DHT22;13689;48.590;7.752;2023-02-02T01:06:59;7.80;81.00
25871;DHT22;13689;48.590;7.752;2023-02-02T01:09:25;7.80;81.10
25871;DHT22;13689;48.590;7.752;2023-02-02T01:11:50;7.80;81.00
25871;DHT22;13689;48.590;7.752;2023-02-02T01:14:16;7.80;81.10
25871;DHT22;13689;48.590;7.752;2023-02-02T01:16:41;7.90;81.20
25871;DHT22;13689;48.590;7.752;2023-02-02T01:19:07;7.80;81.90
25871;DHT22;13689;48.590;7.752;2023-02-02T01:21:33;7.80;81.20
25871;DHT22;13689;48.590;7.752;2023-02-02T01:23:59;7.80;82.10
25871;DHT22;13689;48.590;7.752;2023-02-02T01:26:25;7.90;81.30
25871;DHT22;13689;48.590;7.752;2023-02-02T01:28:50;7.90;81.30
25871;DHT22;13689;48.590;7.752;2023-02-02T01:31:18;7.90;81.30
25871;DHT22;13689;48.590;7.752;2023-02-02T01:33:47;7.90;81.30
25871;DHT22;13689;48.590;7.752;2023-02-02T01:36:26;7.90;81.30
25871;DHT22;13689;48.590;7.752;2023-02-02T01:38:52;7.90;81.30
25871;DHT22;13689;48.590;7.752;2023-02-02T01:41:20;7.90;81.50
25871;DHT22;13689;48.590;7.752;2023-02-02T01:46:33;7.90;81.40
25871;DHT22;13689;48.590;7.752;2023-02-02T01:49:06;7.90;81.50
25871;DHT22;13689;48.590;7.752;2023-02-02T01:54:19;7.80;81.60
25871;DHT22;13689;48.590;7.752;2023-02-02T01:56:53;7.80;81.60
25871;DHT22;13689;48.590;7.752;2023-02-02T01:59:20;7.90;81.60
25871;DHT22;13689;48.590;7.752;2023-02-02T02:01:47;7.90;81.60
25871;DHT22;13689;48.590;7.752;2023-02-02T02:04:13;7.90;81.60
25871;DHT22;13689;48.590;7.752;2023-02-02T02:06:40;7.90;81.60
25871;DHT22;13689;48.590;7.752;2023-02-02T02:09:07;7.90;81.60
25871;DHT22;13689;48.590;7.752;2023-02-02T02:11:34;7.90;81.60
25871;DHT22;13689;48.590;7.752;2023-02-02T02:14:04;7.90;81.50
25871;DHT22;13689;48.590;7.752;2023-02-02T02:26:27;7.90;81.40
25871;DHT22;13689;48.590;7.752;2023-02-02T02:34:42;7.90;81.60
25871;DHT22;13689;48.590;7.752;2023-02-02T02:40:21;7.90;81.60
25871;DHT22;13689;48.590;7.752;2023-02-02T02:43:15;7.90;81.60
25871;DHT22;13689;48.590;7.752;2023-02-02T02:45:40;8.00;81.70
25871;DHT22;13689;48.590;7.752;2023-02-02T02:48:09;7.90;81.60
25871;DHT22;13689;48.590;7.752;2023-02-02T02:50:35;7.90;81.60
25871;DHT22;13689;48.590;7.752;2023-02-02T02:53:06;7.90;81.60
25871;DHT22;13689;48.590;7.752;2023-02-02T02:55:52;7.90;81.60
25871;DHT22;13689;48.590;7.752;2023-02-02T03:01:34;7.90;82.00
25871;DHT22;13689;48.590;7.752;2023-02-02T03:04:07;7.90;81.90
25871;DHT22;13689;48.590;7.752;2023-02-02T03:06:51;7.90;82.00
25871;DHT22;13689;48.590;7.752;2023-02-02T03:09:22;7.90;81.90
25871;DHT22;13689;48.590;7.752;2023-02-02T03:11:49;7.90;81.90
25871;DHT22;13689;48.590;7.752;2023-02-02T03:14:15;7.80;82.00
25871;DHT22;13689;48.590;7.752;2023-02-02T03:16:41;7.80;82.20
25871;DHT22;13689;48.590;7.752;2023-02-02T03:19:07;7.80;82.20
25871;DHT22;13689;48.590;7.752;2023-02-02T03:21:33;7.80;82.30
25871;DHT22;13689;48.590;7.752;2023-02-02T03:23:59;7.80;82.40
25871;DHT22;13689;48.590;7.752;2023-02-02T03:26:26;7.80;82.40
25871;DHT22;13689;48.590;7.752;2023-02-02T03:28:58;7.70;82.40
25871;DHT22;13689;48.590;7.752;2023-02-02T03:31:27;7.70;82.40
25871;DHT22;13689;48.590;7.752;2023-02-02T03:33:54;7.70;82.40
25871;DHT22;13689;48.590;7.752;2023-02-02T03:36:20;7.70;82.50
25871;DHT22;13689;48.590;7.752;2023-02-02T03:38:45;7.70;82.50
25871;DHT22;13689;48.590;7.752;2023-02-02T03:41:11;7.70;82.50
25871;DHT22;13689;48.590;7.752;2023-02-02T03:43:37;7.70;82.60
25871;DHT22;13689;48.590;7.752;2023-02-02T03:46:04;7.70;82.70
25871;DHT22;13689;48.590;7.752;2023-02-02T03:48:33;7.70;82.70
25871;DHT22;13689;48.590;7.752;2023-02-02T03:50:59;7.70;82.70
25871;DHT22;13689;48.590;7.752;2023-02-02T03:53:27;7.70;82.70
25871;DHT22;13689;48.590;7.752;2023-02-02T03:55:53;7.70;82.70
25871;DHT22;13689;48.590;7.752;2023-02-02T03:58:19;7.70;82.80
25871;DHT22;13689;48.590;7.752;2023-02-02T04:00:46;7.70;82.90
25871;DHT22;13689;48.590;7.752;2023-02-02T04:03:12;7.70;82.80
25871;DHT22;13689;48.590;7.752;2023-02-02T04:05:48;7.70;83.00
25871;DHT22;13689;48.590;7.752;2023-02-02T04:08:14;7.70;83.10
25871;DHT22;13689;48.590;7.752;2023-02-02T04:10:45;7.70;83.10
25871;DHT22;13689;48.590;7.752;2023-02-02T04:13:11;7.70;83.20
25871;DHT22;13689;48.590;7.752;2023-02-02T04:15:37;7.70;83.30
25871;DHT22;13689;48.590;7.752;2023-02-02T04:18:02;7.70;83.40
25871;DHT22;13689;48.590;7.752;2023-02-02T04:20:28;7.70;83.40
25871;DHT22;13689;48.590;7.752;2023-02-02T04:22:54;7.70;83.30
25871;DHT22;13689;48.590;7.752;2023-02-02T04:25:19;7.70;83.30
25871;DHT22;13689;48.590;7.752;2023-02-02T04:27:45;7.80;83.50
25871;DHT22;13689;48.590;7.752;2023-02-02T04:30:11;7.80;83.50
25871;DHT22;13689;48.590;7.752;2023-02-02T04:32:36;7.70;83.30
25871;DHT22;13689;48.590;7.752;2023-02-02T04:35:02;7.80;83.30
25871;DHT22;13689;48.590;7.752;2023-02-02T04:37:30;7.70;83.30
25871;DHT22;13689;48.590;7.752;2023-02-02T04:39:56;7.80;83.40
25871;DHT22;13689;48.590;7.752;2023-02-02T04:42:22;7.80;83.50
25871;DHT22;13689;48.590;7.752;2023-02-02T04:44:48;7.80;83.30
25871;DHT22;13689;48.590;7.752;2023-02-02T04:47:13;7.80;83.30
25871;DHT22;13689;48.590;7.752;2023-02-02T04:49:39;7.80;83.30
25871;DHT22;13689;48.590;7.752;2023-02-02T04:52:10;7.80;83.30
25871;DHT22;13689;48.590;7.752;2023-02-02T04:54:36;7.80;83.20
25871;DHT22;13689;48.590;7.752;2023-02-02T04:57:10;7.80;83.20
25871;DHT22;13689;48.590;7.752;2023-02-02T04:59:36;7.80;83.20
25871;DHT22;13689;48.590;7.752;2023-02-02T05:02:10;7.80;83.10
25871;DHT22;13689;48.590;7.752;2023-02-02T05:04:36;7.80;83.10
25871;DHT22;13689;48.590;7.752;2023-02-02T05:07:02;7.80;83.10
25871;DHT22;13689;48.590;7.752;2023-02-02T05:09:27;7.80;83.10
25871;DHT22;13689;48.590;7.752;2023-02-02T05:11:53;7.80;83.10
25871;DHT22;13689;48.590;7.752;2023-02-02T05:14:19;7.80;83.10
25871;DHT22;13689;48.590;7.752;2023-02-02T05:16:53;7.80;83.10
25871;DHT22;13689;48.590;7.752;2023-02-02T05:19:19;7.80;83.10
25871;DHT22;13689;48.590;7.752;2023-02-02T05:21:45;7.80;83.10
25871;DHT22;13689;48.590;7.752;2023-02-02T05:24:12;7.90;83.20
25871;DHT22;13689;48.590;7.752;2023-02-02T05:26:38;7.80;83.10
25871;DHT22;13689;48.590;7.752;2023-02-02T05:29:03;7.90;83.10
25871;DHT22;13689;48.590;7.752;2023-02-02T05:31:31;7.80;83.00
25871;DHT22;13689;48.590;7.752;2023-02-02T05:33:58;7.80;83.00
25871;DHT22;13689;48.590;7.752;2023-02-02T05:36:24;7.90;83.00
25871;DHT22;13689;48.590;7.752;2023-02-02T05:38:50;7.90;83.00
25871;DHT22;13689;48.590;7.752;2023-02-02T05:41:15;7.90;83.00
25871;DHT22;13689;48.590;7.752;2023-02-02T05:43:41;7.90;82.90
25871;DHT22;13689;48.590;7.752;2023-02-02T05:46:06;7.90;83.00
25871;DHT22;13689;48.590;7.752;2023-02-02T05:48:32;7.90;83.10
25871;DHT22;13689;48.590;7.752;2023-02-02T05:51:26;7.90;83.10
25871;DHT22;13689;48.590;7.752;2023-02-02T05:53:53;7.90;83.30
25871;DHT22;13689;48.590;7.752;2023-02-02T05:56:18;7.80;83.40
25871;DHT22;13689;48.590;7.752;2023-02-02T05:58:44;7.90;83.50
25871;DHT22;13689;48.590;7.752;2023-02-02T06:01:13;7.80;83.40
25871;DHT22;13689;48.590;7.752;2023-02-02T06:03:38;7.90;83.50
25871;DHT22;13689;48.590;7.752;2023-02-02T06:06:04;7.90;83.60
25871;DHT22;13689;48.590;7.752;2023-02-02T06:08:30;7.90;83.60
25871;DHT22;13689;48.590;7.752;2023-02-02T06:10:56;7.80;83.60
25871;DHT22;13689;48.590;7.752;2023-02-02T06:13:21;7.80;83.60
25871;DHT22;13689;48.590;7.752;2023-02-02T06:15:47;7.80;83.70
25871;DHT22;13689;48.590;7.752;2023-02-02T06:18:13;7.90;83.80
25871;DHT22;13689;48.590;7.752;2023-02-02T06:20:38;7.90;83.70
25871;DHT22;13689;48.590;7.752;2023-02-02T06:23:04;7.90;83.90
25871;DHT22;13689;48.590;7.752;2023-02-02T06:25:30;7.90;83.90
25871;DHT22;13689;48.590;7.752;2023-02-02T06:27:57;7.90;83.90
25871;DHT22;13689;48.590;7.752;2023-02-02T06:30:23;7.90;83.90
25871;DHT22;13689;48.590;7.752;2023-02-02T06:32:53;7.90;83.90
25871;DHT22;13689;48.590;7.752;2023-02-02T06:35:18;7.90;83.90
25871;DHT22;13689;48.590;7.752;2023-02-02T06:37:44;7.90;83.80
25871;DHT22;13689;48.590;7.752;2023-02-02T06:40:11;7.90;83.90
25871;DHT22;13689;48.590;7.752;2023-02-02T06:42:38;7.90;84.00
25871;DHT22;13689;48.590;7.752;2023-02-02T06:45:04;7.90;84.00
25871;DHT22;13689;48.590;7.752;2023-02-02T06:47:31;7.90;84.00
25871;DHT22;13689;48.590;7.752;2023-02-02T06:50:00;7.90;84.00
25871;DHT22;13689;48.590;7.752;2023-02-02T06:52:25;7.90;84.00
25871;DHT22;13689;48.590;7.752;2023-02-02T06:54:51;7.90;84.10
25871;DHT22;13689;48.590;7.752;2023-02-02T06:57:17;7.90;84.00
25871;DHT22;13689;48.590;7.752;2023-02-02T06:59:42;7.90;84.00
25871;DHT22;13689;48.590;7.752;2023-02-02T07:02:11;8.00;84.00
25871;DHT22;13689;48.590;7.752;2023-02-02T07:04:37;8.00;83.90
25871;DHT22;13689;48.590;7.752;2023-02-02T07:07:03;7.90;83.90
25871;DHT22;13689;48.590;7.752;2023-02-02T07:09:32;7.90;83.90
25871;DHT22;13689;48.590;7.752;2023-02-02T07:11:58;8.00;83.90
25871;DHT22;13689;48.590;7.752;2023-02-02T07:14:23;7.90;83.90
25871;DHT22;13689;48.590;7.752;2023-02-02T07:16:49;8.00;83.90
25871;DHT22;13689;48.590;7.752;2023-02-02T07:19:15;8.00;83.90
25871;DHT22;13689;48.590;7.752;2023-02-02T07:21:40;8.00;83.90
25871;DHT22;13689;48.590;7.752;2023-02-02T07:24:06;8.00;83.80
25871;DHT22;13689;48.590;7.752;2023-02-02T07:26:33;8.00;83.80
25871;DHT22;13689;48.590;7.752;2023-02-02T07:29:00;8.00;83.80
25871;DHT22;13689;48.590;7.752;2023-02-02T07:31:26;8.00;83.80
25871;DHT22;13689;48.590;7.752;2023-02-02T07:33:52;8.00;83.80
25871;DHT22;13689;48.590;7.752;2023-02-02T07:36:19;8.00;83.80
25871;DHT22;13689;48.590;7.752;2023-02-02T07:38:47;8.00;83.80
25871;DHT22;13689;48.590;7.752;2023-02-02T07:41:13;8.00;83.70
25871;DHT22;13689;48.590;7.752;2023-02-02T07:43:39;8.10;83.80
25871;DHT22;13689;48.590;7.752;2023-02-02T07:46:06;8.10;83.70
25871;DHT22;13689;48.590;7.752;2023-02-02T07:48:34;8.00;84.40
25871;DHT22;13689;48.590;7.752;2023-02-02T07:51:01;8.00;83.60
25871;DHT22;13689;48.590;7.752;2023-02-02T07:53:27;8.10;83.60
25871;DHT22;13689;48.590;7.752;2023-02-02T07:56:03;8.10;83.60
25871;DHT22;13689;48.590;7.752;2023-02-02T07:58:29;8.10;83.50
25871;DHT22;13689;48.590;7.752;2023-02-02T08:00:54;8.10;83.40
25871;DHT22;13689;48.590;7.752;2023-02-02T08:03:24;8.20;83.40
25871;DHT22;13689;48.590;7.752;2023-02-02T08:05:49;8.20;84.10
25871;DHT22;13689;48.590;7.752;2023-02-02T08:08:15;8.20;83.20
25871;DHT22;13689;48.590;7.752;2023-02-02T08:10:49;8.30;83.10
25871;DHT22;13689;48.590;7.752;2023-02-02T08:13:15;8.30;83.00
25871;DHT22;13689;48.590;7.752;2023-02-02T08:15:41;8.30;82.80
25871;DHT22;13689;48.590;7.752;2023-02-02T08:18:07;8.30;82.80
25871;DHT22;13689;48.590;7.752;2023-02-02T08:20:32;8.30;82.60
25871;DHT22;13689;48.590;7.752;2023-02-02T08:22:58;8.40;82.70
25871;DHT22;13689;48.590;7.752;2023-02-02T08:25:30;8.40;82.50
25871;DHT22;13689;48.590;7.752;2023-02-02T08:27:56;8.50;82.50
25871;DHT22;13689;48.590;7.752;2023-02-02T08:30:26;8.50;82.40
25871;DHT22;13689;48.590;7.752;2023-02-02T08:32:51;8.50;82.30
25871;DHT22;13689;48.590;7.752;2023-02-02T08:35:17;8.50;82.20
25871;DHT22;13689;48.590;7.752;2023-02-02T08:37:46;8.60;82.10
25871;DHT22;13689;48.590;7.752;2023-02-02T08:40:13;8.60;82.10
25871;DHT22;13689;48.590;7.752;2023-02-02T08:42:38;8.60;81.90
25871;DHT22;13689;48.590;7.752;2023-02-02T08:45:05;8.70;82.00
25871;DHT22;13689;48.590;7.752;2023-02-02T08:47:30;8.70;81.80
25871;DHT22;13689;48.590;7.752;2023-02-02T08:49:56;8.80;81.80
25871;DHT22;13689;48.590;7.752;2023-02-02T08:52:22;8.80;81.60
25871;DHT22;13689;48.590;7.752;2023-02-02T08:54:47;8.90;81.50
25871;DHT22;13689;48.590;7.752;2023-02-02T08:57:13;8.90;81.30
25871;DHT22;13689;48.590;7.752;2023-02-02T08:59:38;9.00;81.30
25871;DHT22;13689;48.590;7.752;2023-02-02T09:02:04;9.10;81.30
25871;DHT22;13689;48.590;7.752;2023-02-02T09:04:30;9.10;81.10
25871;DHT22;13689;48.590;7.752;2023-02-02T09:06:55;9.10;81.00
25871;DHT22;13689;48.590;7.752;2023-02-02T09:09:21;9.10;81.00
25871;DHT22;13689;48.590;7.752;2023-02-02T09:11:47;9.00;80.90
25871;DHT22;13689;48.590;7.752;2023-02-02T09:14:13;8.90;80.90
25871;DHT22;13689;48.590;7.752;2023-02-02T09:16:42;8.90;80.90
25871;DHT22;13689;48.590;7.752;2023-02-02T09:19:09;8.90;80.90
25871;DHT22;13689;48.590;7.752;2023-02-02T09:21:35;8.90;80.90
25871;DHT22;13689;48.590;7.752;2023-02-02T09:24:06;8.90;80.80
25871;DHT22;13689;48.590;7.752;2023-02-02T09:26:32;8.90;80.80
25871;DHT22;13689;48.590;7.752;2023-02-02T09:29:05;8.90;80.80
25871;DHT22;13689;48.590;7.752;2023-02-02T09:31:33;8.90;80.80
25871;DHT22;13689;48.590;7.752;2023-02-02T09:34:04;9.00;80.80
25871;DHT22;13689;48.590;7.752;2023-02-02T09:36:30;9.00;80.60
25871;DHT22;13689;48.590;7.752;2023-02-02T09:38:56;9.10;80.60
25871;DHT22;13689;48.590;7.752;2023-02-02T09:44:20;9.20;80.30
25871;DHT22;13689;48.590;7.752;2023-02-02T09:52:12;9.60;79.60
25871;DHT22;13689;48.590;7.752;2023-02-02T09:55:04;9.80;79.10
25871;DHT22;13689;48.590;7.752;2023-02-02T09:57:42;10.00;78.70
25871;DHT22;13689;48.590;7.752;2023-02-02T10:00:29;10.20;78.20
25871;DHT22;13689;48.590;7.752;2023-02-02T10:03:03;10.20;77.90
25871;DHT22;13689;48.590;7.752;2023-02-02T10:05:44;10.40;77.70
25871;DHT22;13689;48.590;7.752;2023-02-02T10:08:27;10.40;77.40
25871;DHT22;13689;48.590;7.752;2023-02-02T10:10:56;10.40;77.30
25871;DHT22;13689;48.590;7.752;2023-02-02T10:13:27;10.30;77.00
25871;DHT22;13689;48.590;7.752;2023-02-02T10:16:23;10.30;76.80
25871;DHT22;13689;48.590;7.752;2023-02-02T10:19:00;10.20;76.80
25871;DHT22;13689;48.590;7.752;2023-02-02T10:24:06;10.20;76.90
25871;DHT22;13689;48.590;7.752;2023-02-02T10:26:38;10.20;76.40
25871;DHT22;13689;48.590;7.752;2023-02-02T10:29:15;10.20;76.40
25871;DHT22;13689;48.590;7.752;2023-02-02T10:32:05;10.20;76.40
25871;DHT22;13689;48.590;7.752;2023-02-02T10:34:41;10.20;75.90
25871;DHT22;13689;48.590;7.752;2023-02-02T10:40:02;10.60;75.30
25871;DHT22;13689;48.590;7.752;2023-02-02T10:45:17;10.90;74.30
25871;DHT22;13689;48.590;7.752;2023-02-02T10:47:44;10.90;74.10
25871;DHT22;13689;48.590;7.752;2023-02-02T10:50:14;10.90;74.00
25871;DHT22;13689;48.590;7.752;2023-02-02T10:52:53;10.90;73.80
25871;DHT22;13689;48.590;7.752;2023-02-02T10:55:41;10.80;73.40
25871;DHT22;13689;48.590;7.752;2023-02-02T10:58:16;10.80;73.20
25871;DHT22;13689;48.590;7.752;2023-02-02T11:00:54;10.80;73.10
25871;DHT22;13689;48.590;7.752;2023-02-02T11:03:25;10.80;73.00
25871;DHT22;13689;48.590;7.752;2023-02-02T11:05:51;10.70;72.80
25871;DHT22;13689;48.590;7.752;2023-02-02T11:08:41;10.60;72.80
25871;DHT22;13689;48.590;7.752;2023-02-02T11:11:42;10.60;72.90
25871;DHT22;13689;48.590;7.752;2023-02-02T11:16:36;10.50;73.60
25871;DHT22;13689;48.590;7.752;2023-02-02T11:19:25;10.50;72.80
25871;DHT22;13689;48.590;7.752;2023-02-02T11:21:55;10.50;72.70
25871;DHT22;13689;48.590;7.752;2023-02-02T11:25:06;10.40;72.60
25871;DHT22;13689;48.590;7.752;2023-02-02T11:27:37;10.40;72.70
25871;DHT22;13689;48.590;7.752;2023-02-02T11:30:31;10.40;72.80
25871;DHT22;13689;48.590;7.752;2023-02-02T11:32:58;10.40;72.80
25871;DHT22;13689;48.590;7.752;2023-02-02T11:35:26;10.30;72.80
25871;DHT22;13689;48.590;7.752;2023-02-02T11:38:14;10.30;72.80
25871;DHT22;13689;48.590;7.752;2023-02-02T11:40:51;10.30;72.90
25871;DHT22;13689;48.590;7.752;2023-02-02T11:46:23;10.20;72.80
25871;DHT22;13689;48.590;7.752;2023-02-02T11:49:11;10.10;72.80
25871;DHT22;13689;48.590;7.752;2023-02-02T11:51:39;10.10;72.90
25871;DHT22;13689;48.590;7.752;2023-02-02T11:54:14;10.10;72.80
25871;DHT22;13689;48.590;7.752;2023-02-02T11:56:55;10.10;72.80
25871;DHT22;13689;48.590;7.752;2023-02-02T11:59:38;10.10;72.70
25871;DHT22;13689;48.590;7.752;2023-02-02T12:04:48;10.20;72.60
25871;DHT22;13689;48.590;7.752;2023-02-02T12:07:23;10.20;72.60
25871;DHT22;13689;48.590;7.752;2023-02-02T12:09:50;10.30;72.60
25871;DHT22;13689;48.590;7.752;2023-02-02T12:12:30;10.30;72.60
25871;DHT22;13689;48.590;7.752;2023-02-02T12:17:47;10.40;73.20
25871;DHT22;13689;48.590;7.752;2023-02-02T12:20:42;10.40;72.30
25871;DHT22;13689;48.590;7.752;2023-02-02T12:23:33;10.40;72.20
25871;DHT22;13689;48.590;7.752;2023-02-02T12:26:26;10.50;72.30
25871;DHT22;13689;48.590;7.752;2023-02-02T12:31:46;10.60;71.90
25871;DHT22;13689;48.590;7.752;2023-02-02T12:37:22;10.60;71.80
25871;DHT22;13689;48.590;7.752;2023-02-02T12:51:17;10.60;71.50
25871;DHT22;13689;48.590;7.752;2023-02-02T12:54:23;10.60;71.50
25871;DHT22;13689;48.590;7.752;2023-02-02T12:57:04;10.60;71.50
25871;DHT22;13689;48.590;7.752;2023-02-02T12:59:47;10.60;71.30
25871;DHT22;13689;48.590;7.752;2023-02-02T13:02:49;10.50;71.20
25871;DHT22;13689;48.590;7.752;2023-02-02T13:08:05;10.50;71.20
25871;DHT22;13689;48.590;7.752;2023-02-02T13:10:37;10.50;71.30
25871;DHT22;13689;48.590;7.752;2023-02-02T13:15:35;10.50;71.00
25871;DHT22;13689;48.590;7.752;2023-02-02T13:18:16;10.50;71.10
25871;DHT22;13689;48.590;7.752;2023-02-02T13:23:29;10.60;70.80
25871;DHT22;13689;48.590;7.752;2023-02-02T13:26:09;10.60;70.80
25871;DHT22;13689;48.590;7.752;2023-02-02T13:31:30;10.70;70.40
25871;DHT22;13689;48.590;7.752;2023-02-02T13:37:21;10.70;70.30
25871;DHT22;13689;48.590;7.752;2023-02-02T13:40:00;10.70;70.30
25871;DHT22;13689;48.590;7.752;2023-02-02T13:42:41;10.70;70.30
25871;DHT22;13689;48.590;7.752;2023-02-02T13:45:38;10.60;70.30
25871;DHT22;13689;48.590;7.752;2023-02-02T13:49:05;10.60;71.20
25871;DHT22;13689;48.590;7.752;2023-02-02T13:59:17;10.60;70.50
25871;DHT22;13689;48.590;7.752;2023-02-02T14:01:48;10.60;70.50
25871;DHT22;13689;48.590;7.752;2023-02-02T14:04:29;10.70;70.50
25871;DHT22;13689;48.590;7.752;2023-02-02T14:07:04;10.70;70.40
25871;DHT22;13689;48.590;7.752;2023-02-02T14:09:33;10.60;70.50
25871;DHT22;13689;48.590;7.752;2023-02-02T14:12:08;10.60;70.50
25871;DHT22;13689;48.590;7.752;2023-02-02T14:14:37;10.60;70.50
25871;DHT22;13689;48.590;7.752;2023-02-02T14:20:00;10.60;70.50
25871;DHT22;13689;48.590;7.752;2023-02-02T14:22:45;10.60;70.50
25871;DHT22;13689;48.590;7.752;2023-02-02T14:28:08;10.60;70.50
25871;DHT22;13689;48.590;7.752;2023-02-02T14:30:36;10.60;70.50
25871;DHT22;13689;48.590;7.752;2023-02-02T14:38:20;10.50;70.30
25871;DHT22;13689;48.590;7.752;2023-02-02T14:41:01;10.50;70.30
25871;DHT22;13689;48.590;7.752;2023-02-02T14:43:34;10.50;70.30
25871;DHT22;13689;48.590;7.752;2023-02-02T14:51:29;10.40;70.50
25871;DHT22;13689;48.590;7.752;2023-02-02T14:54:13;10.40;70.70
25871;DHT22;13689;48.590;7.752;2023-02-02T14:56:56;10.40;70.80
25871;DHT22;13689;48.590;7.752;2023-02-02T14:59:26;10.40;70.80
25871;DHT22;13689;48.590;7.752;2023-02-02T15:04:35;10.30;71.00
25871;DHT22;13689;48.590;7.752;2023-02-02T15:07:36;10.30;71.00
25871;DHT22;13689;48.590;7.752;2023-02-02T15:10:08;10.30;71.00
25871;DHT22;13689;48.590;7.752;2023-02-02T15:12:35;10.30;71.00
25871;DHT22;13689;48.590;7.752;2023-02-02T15:15:20;10.20;71.00
25871;DHT22;13689;48.590;7.752;2023-02-02T15:18:14;10.20;71.10
25871;DHT22;13689;48.590;7.752;2023-02-02T15:20:47;10.20;71.10
25871;DHT22;13689;48.590;7.752;2023-02-02T15:23:33;10.10;71.10
25871;DHT22;13689;48.590;7.752;2023-02-02T15:26:17;10.10;71.30
25871;DHT22;13689;48.590;7.752;2023-02-02T15:28:52;10.10;71.30
25871;DHT22;13689;48.590;7.752;2023-02-02T15:31:39;10.10;71.20
25871;DHT22;13689;48.590;7.752;2023-02-02T15:34:24;10.10;71.20
25871;DHT22;13689;48.590;7.752;2023-02-02T15:36:57;10.10;71.30
25871;DHT22;13689;48.590;7.752;2023-02-02T15:39:39;10.00;71.30
25871;DHT22;13689;48.590;7.752;2023-02-02T15:42:16;10.00;71.30
25871;DHT22;13689;48.590;7.752;2023-02-02T15:45:01;10.00;71.30
25871;DHT22;13689;48.590;7.752;2023-02-02T15:47:35;10.00;71.30
25871;DHT22;13689;48.590;7.752;2023-02-02T15:50:18;10.00;71.30
25871;DHT22;13689;48.590;7.752;2023-02-02T15:52:48;10.00;71.30
25871;DHT22;13689;48.590;7.752;2023-02-02T15:55:20;10.00;71.30
25871;DHT22;13689;48.590;7.752;2023-02-02T15:57:51;10.00;71.30
25871;DHT22;13689;48.590;7.752;2023-02-02T16:00:31;10.00;71.30
25871;DHT22;13689;48.590;7.752;2023-02-02T16:03:18;9.90;71.30
25871;DHT22;13689;48.590;7.752;2023-02-02T16:05:49;9.90;71.30
25871;DHT22;13689;48.590;7.752;2023-02-02T16:08:25;9.90;71.40
25871;DHT22;13689;48.590;7.752;2023-02-02T16:11:08;9.90;71.40
25871;DHT22;13689;48.590;7.752;2023-02-02T16:13:34;9.90;71.50
25871;DHT22;13689;48.590;7.752;2023-02-02T16:16:02;9.90;71.60
25871;DHT22;13689;48.590;7.752;2023-02-02T16:18:30;9.90;71.60
25871;DHT22;13689;48.590;7.752;2023-02-02T16:20:59;9.90;71.60
25871;DHT22;13689;48.590;7.752;2023-02-02T16:23:29;9.90;71.70
25871;DHT22;13689;48.590;7.752;2023-02-02T16:25:58;9.90;71.90
25871;DHT22;13689;48.590;7.752;2023-02-02T16:28:24;9.80;71.80
25871;DHT22;13689;48.590;7.752;2023-02-02T16:30:51;9.90;71.90
25871;DHT22;13689;48.590;7.752;2023-02-02T16:33:44;9.90;71.90
25871;DHT22;13689;48.590;7.752;2023-02-02T16:36:24;9.80;71.90
25871;DHT22;13689;48.590;7.752;2023-02-02T16:38:51;9.80;71.80
25871;DHT22;13689;48.590;7.752;2023-02-02T16:41:31;9.80;71.90
25871;DHT22;13689;48.590;7.752;2023-02-02T16:47:01;9.70;72.20
25871;DHT22;13689;48.590;7.752;2023-02-02T16:49:29;9.70;72.30
25871;DHT22;13689;48.590;7.752;2023-02-02T16:52:15;9.70;72.30
25871;DHT22;13689;48.590;7.752;2023-02-02T16:54:53;9.70;72.40
25871;DHT22;13689;48.590;7.752;2023-02-02T16:57:22;9.70;72.50
25871;DHT22;13689;48.590;7.752;2023-02-02T16:59:51;9.70;72.50
25871;DHT22;13689;48.590;7.752;2023-02-02T17:02:28;9.70;72.70
25871;DHT22;13689;48.590;7.752;2023-02-02T17:07:50;9.70;72.70
25871;DHT22;13689;48.590;7.752;2023-02-02T17:12:52;9.70;72.70
25871;DHT22;13689;48.590;7.752;2023-02-02T17:17:44;9.60;72.90
25871;DHT22;13689;48.590;7.752;2023-02-02T17:20:13;9.70;72.60
25871;DHT22;13689;48.590;7.752;2023-02-02T17:22:42;9.60;72.60
25871;DHT22;13689;48.590;7.752;2023-02-02T17:25:14;9.70;72.60
25871;DHT22;13689;48.590;7.752;2023-02-02T17:27:41;9.70;72.50
25871;DHT22;13689;48.590;7.752;2023-02-02T17:30:13;9.70;72.50
25871;DHT22;13689;48.590;7.752;2023-02-02T17:32:39;9.70;72.30
25871;DHT22;13689;48.590;7.752;2023-02-02T17:35:15;9.70;72.30
25871;DHT22;13689;48.590;7.752;2023-02-02T17:37:41;9.60;72.30
25871;DHT22;13689;48.590;7.752;2023-02-02T17:40:11;9.60;72.40
25871;DHT22;13689;48.590;7.752;2023-02-02T17:42:38;9.70;72.40
25871;DHT22;13689;48.590;7.752;2023-02-02T17:45:12;9.70;72.30
25871;DHT22;13689;48.590;7.752;2023-02-02T17:47:39;9.70;72.30
25871;DHT22;13689;48.590;7.752;2023-02-02T17:50:05;9.70;72.30
25871;DHT22;13689;48.590;7.752;2023-02-02T17:52:32;9.60;72.30
25871;DHT22;13689;48.590;7.752;2023-02-02T17:54:58;9.70;72.30
25871;DHT22;13689;48.590;7.752;2023-02-02T17:57:23;9.70;72.30
25871;DHT22;13689;48.590;7.752;2023-02-02T17:59:49;9.70;72.30
25871;DHT22;13689;48.590;7.752;2023-02-02T18:02:16;9.70;73.00
25871;DHT22;13689;48.590;7.752;2023-02-02T18:04:42;9.70;72.20
25871;DHT22;13689;48.590;7.752;2023-02-02T18:07:08;9.60;72.30
25871;DHT22;13689;48.590;7.752;2023-02-02T18:09:33;9.60;72.40